Time;durP1;ratioP1;P1;durP2;ratioP2;P2;SDS_P1;SDS_P2;PMS_P1;PMS_P2;Temp;Humidity;BMP_temperature;BMP_pressure;BME280_temperature;BME280_humidity;BME280_pressure;Samples;Min_cycle;Max_cycle;Signal;HPM_P1;HPM_P2
2022/10/10 00:00:33;;;;;;;4.50;2.30;;;8.60;99.90;;;;;;5071810;28;20052;-70
2022/10/10 00:02:59;;;;;;;5.07;2.97;;;8.60;99.90;;;;;;5075703;28;20087;-70
2022/10/10 00:05:25;;;;;;;2.95;2.13;;;8.50;99.90;;;;;;5072356;28;20137;-70
2022/10/10 00:07:51;;;;;;;4.28;2.15;;;9.20;99.90;;;;;;5071328;28;20044;-70
2022/10/10 00:10:16;;;;;;;4.45;2.33;;;8.50;99.90;;;;;;5080892;28;20056;-70
2022/10/10 00:12:42;;;;;;;4.18;2.45;;;8.50;99.90;;;;;;5072145;28;20071;-70
2022/10/10 00:15:10;;;;;;;4.75;2.30;;;8.40;99.90;;;;;;5072474;28;20052;-70
2022/10/10 00:17:35;;;;;;;4.20;2.15;;;8.40;99.90;;;;;;5067069;28;20044;-69
2022/10/10 00:20:01;;;;;;;3.65;2.20;;;8.50;99.90;;;;;;5072031;28;20406;-69
2022/10/10 00:22:27;;;;;;;3.75;2.38;;;8.40;99.90;;;;;;5072293;28;20094;-69
2022/10/10 00:24:52;;;;;;;3.42;2.25;;;8.50;99.90;;;;;;5071276;28;20083;-70
2022/10/10 00:27:18;;;;;;;4.88;2.72;;;8.40;99.90;;;;;;5073462;28;20102;-70
2022/10/10 00:29:44;;;;;;;3.88;2.33;;;8.40;99.90;;;;;;5071787;28;20049;-70
2022/10/10 00:32:09;;;;;;;5.25;2.40;;;8.40;99.90;;;;;;5079248;28;20131;-69
2022/10/10 00:34:35;;;;;;;3.95;2.33;;;8.40;99.90;;;;;;5071518;28;20044;-69
2022/10/10 00:37:00;;;;;;;3.80;2.50;;;8.40;99.90;;;;;;5092273;28;20496;-69
2022/10/10 00:39:26;;;;;;;3.05;2.10;;;8.40;99.90;;;;;;5084956;28;20114;-69
2022/10/10 00:41:52;;;;;;;3.58;2.00;;;8.50;99.90;;;;;;5070714;28;20050;-69
2022/10/10 00:44:18;;;;;;;3.15;2.05;;;8.40;99.90;;;;;;5071806;28;20131;-70
2022/10/10 00:46:43;;;;;;;3.25;1.92;;;8.30;99.90;;;;;;5070496;28;20043;-69
2022/10/10 00:49:14;;;;;;;3.50;2.40;;;8.30;99.90;;;;;;5071757;28;20093;-69
2022/10/10 00:51:42;;;;;;;3.00;1.98;;;8.30;99.90;;;;;;5104078;28;20044;-70
2022/10/10 00:54:10;;;;;;;3.03;1.90;;;8.20;99.90;;;;;;5074766;28;20088;-69
2022/10/10 00:56:45;;;;;;;3.55;2.10;;;8.20;99.90;;;;;;5084197;28;20055;-69
2022/10/10 00:59:11;;;;;;;3.67;2.30;;;8.20;99.90;;;;;;5071514;28;20040;-69
2022/10/10 01:01:39;;;;;;;3.40;2.20;;;8.20;99.90;;;;;;5074033;28;20104;-70
2022/10/10 01:04:05;;;;;;;4.82;2.50;;;8.10;99.90;;;;;;5077998;28;20052;-69
2022/10/10 01:06:32;;;;;;;4.10;2.10;;;8.10;99.90;;;;;;5073117;28;20105;-69
2022/10/10 01:08:59;;;;;;;3.08;1.90;;;8.20;99.90;;;;;;5091644;28;20056;-70
2022/10/10 01:11:37;;;;;;;2.85;2.00;;;8.20;99.90;;;;;;5074272;28;20424;-69
2022/10/10 01:14:41;;;;;;;4.05;2.10;;;8.20;99.90;;;;;;5071290;28;20049;-70
2022/10/10 01:17:18;;;;;;;3.22;2.08;;;8.10;99.90;;;;;;5079229;28;20113;-70
2022/10/10 01:20:04;;;;;;;3.28;2.00;;;8.00;99.90;;;;;;5067413;28;20049;-70
2022/10/10 01:22:55;;;;;;;4.60;4.20;;;8.00;99.90;;;;;;5076821;28;20129;-70
2022/10/10 01:25:36;;;;;;;3.20;2.45;;;8.00;99.90;;;;;;5075218;28;20504;-70
2022/10/10 01:28:28;;;;;;;3.10;2.25;;;8.00;99.90;;;;;;5069925;28;20055;-70
2022/10/10 01:30:56;;;;;;;3.90;2.20;;;7.90;99.90;;;;;;5069620;28;20060;-70
2022/10/10 01:33:30;;;;;;;3.95;2.00;;;7.90;99.90;;;;;;5070760;28;20102;-69
2022/10/10 01:36:00;;;;;;;3.92;2.40;;;7.90;99.90;;;;;;5075673;28;20504;-69
2022/10/10 01:38:44;;;;;;;5.03;2.50;;;8.00;99.90;;;;;;5070678;28;20135;-69
2022/10/10 01:41:14;;;;;;;2.70;2.17;;;7.90;99.90;;;;;;5069759;28;20102;-69
2022/10/10 01:43:40;;;;;;;3.65;2.53;;;8.10;99.90;;;;;;5071156;28;20511;-69
2022/10/10 01:46:16;;;;;;;4.38;2.22;;;8.00;99.90;;;;;;5079087;28;20084;-70
2022/10/10 01:48:43;;;;;;;4.18;2.28;;;8.20;99.90;;;;;;5069747;28;20123;-70
2022/10/10 01:51:21;;;;;;;3.88;2.20;;;8.10;99.90;;;;;;5074674;28;20052;-70
2022/10/10 01:54:01;;;;;;;4.95;2.72;;;8.30;99.90;;;;;;5087547;28;20037;-70
2022/10/10 01:56:35;;;;;;;3.03;2.22;;;7.50;99.90;;;;;;5071628;28;20071;-69
2022/10/10 01:59:36;;;;;;;3.05;2.10;;;8.30;99.90;;;;;;5070548;28;20543;-70
2022/10/10 02:02:14;;;;;;;3.70;2.20;;;8.30;99.90;;;;;;5070722;28;20051;-69
2022/10/10 02:04:45;;;;;;;3.72;2.35;;;8.30;99.90;;;;;;5058386;28;20053;-70
2022/10/10 02:07:24;;;;;;;3.95;2.67;;;8.30;99.90;;;;;;5090562;28;20512;-70
2022/10/10 02:09:51;;;;;;;3.15;2.20;;;8.30;99.90;;;;;;5075008;28;20080;-70
2022/10/10 02:12:19;;;;;;;3.72;2.60;;;8.30;99.90;;;;;;5070561;28;20067;-70
2022/10/10 02:14:52;;;;;;;4.60;2.53;;;8.40;99.90;;;;;;5052996;28;20119;-70
2022/10/10 02:17:20;;;;;;;4.10;2.40;;;8.30;99.90;;;;;;5072641;28;20052;-70
2022/10/10 02:19:51;;;;;;;3.92;2.90;;;8.30;99.90;;;;;;5070596;28;20067;-69
2022/10/10 02:22:19;;;;;;;3.38;2.45;;;8.30;99.90;;;;;;5077296;28;20658;-70
2022/10/10 02:24:45;;;;;;;3.25;2.58;;;8.30;99.90;;;;;;5088208;28;20091;-70
2022/10/10 02:27:31;;;;;;;4.13;2.60;;;8.20;99.90;;;;;;5077457;28;20489;-70
2022/10/10 02:29:58;;;;;;;4.23;2.57;;;8.20;99.90;;;;;;5092317;28;20319;-70
2022/10/10 02:32:33;;;;;;;3.42;2.70;;;8.20;99.90;;;;;;5071265;28;20801;-71
2022/10/10 02:35:08;;;;;;;2.85;2.33;;;8.20;99.90;;;;;;5074031;28;20056;-70
2022/10/10 02:37:36;;;;;;;4.80;2.50;;;8.20;99.90;;;;;;5068210;28;20544;-70
2022/10/10 02:40:05;;;;;;;3.92;2.60;;;8.40;99.90;;;;;;5067591;28;20086;-70
2022/10/10 02:42:31;;;;;;;4.25;2.72;;;8.20;99.90;;;;;;5083840;28;20109;-70
2022/10/10 02:44:57;;;;;;;3.60;2.75;;;8.20;99.90;;;;;;5089239;28;20052;-71
2022/10/10 02:47:23;;;;;;;5.68;2.92;;;8.10;99.90;;;;;;5073851;28;20105;-70
2022/10/10 02:49:49;;;;;;;3.60;2.70;;;8.20;99.90;;;;;;5072549;28;20119;-70
2022/10/10 02:52:16;;;;;;;4.82;2.53;;;8.20;99.90;;;;;;5074060;28;20106;-70
2022/10/10 02:54:42;;;;;;;4.63;2.50;;;8.20;99.90;;;;;;5078755;28;20067;-70
2022/10/10 02:57:08;;;;;;;4.00;2.53;;;8.10;99.90;;;;;;5082245;28;20075;-70
2022/10/10 02:59:34;;;;;;;4.28;2.53;;;8.30;99.90;;;;;;5075106;28;20044;-69
2022/10/10 03:01:59;;;;;;;5.50;2.38;;;8.20;99.90;;;;;;5075703;28;20143;-69
2022/10/10 03:04:25;;;;;;;3.42;2.30;;;8.20;99.90;;;;;;5078477;28;20052;-70
2022/10/10 03:06:52;;;;;;;4.35;2.42;;;8.20;99.90;;;;;;5082872;28;20049;-70
2022/10/10 03:09:18;;;;;;;3.55;2.70;;;8.20;99.90;;;;;;5092480;28;20052;-70
2022/10/10 03:11:43;;;;;;;5.50;2.38;;;8.20;99.90;;;;;;5092177;28;20054;-70
2022/10/10 03:14:09;;;;;;;3.53;2.40;;;8.20;99.90;;;;;;5073644;28;20048;-70
2022/10/10 03:16:35;;;;;;;2.75;2.20;;;8.20;99.90;;;;;;5075439;28;20043;-71
2022/10/10 03:19:02;;;;;;;3.30;2.33;;;8.10;99.90;;;;;;5073481;28;20087;-70
2022/10/10 03:21:28;;;;;;;3.63;2.17;;;8.50;99.90;;;;;;5084534;28;20048;-70
2022/10/10 03:23:53;;;;;;;3.05;2.33;;;8.20;99.90;;;;;;5087269;28;20044;-70
2022/10/10 03:26:19;;;;;;;3.25;2.38;;;8.20;99.90;;;;;;5077971;28;20044;-70
2022/10/10 03:28:45;;;;;;;2.90;2.55;;;8.20;99.90;;;;;;5073544;28;20055;-70
2022/10/10 03:31:10;;;;;;;3.40;2.40;;;8.20;99.90;;;;;;5076545;28;20071;-70
2022/10/10 03:33:36;;;;;;;3.13;2.35;;;8.20;99.90;;;;;;5077445;28;20130;-70
2022/10/10 03:36:03;;;;;;;4.93;2.75;;;8.20;99.90;;;;;;5079715;28;20101;-70
2022/10/10 03:38:28;;;;;;;3.72;2.65;;;8.20;99.90;;;;;;5082122;28;20435;-71
2022/10/10 03:40:54;;;;;;;3.53;2.38;;;8.30;99.90;;;;;;5081676;28;20044;-70
2022/10/10 03:43:20;;;;;;;3.60;2.45;;;8.20;99.90;;;;;;5080768;28;20075;-71
2022/10/10 03:45:46;;;;;;;3.97;2.65;;;8.10;99.90;;;;;;5054982;28;20052;-70
2022/10/10 03:48:12;;;;;;;4.15;2.70;;;8.10;99.90;;;;;;5071554;28;20456;-70
2022/10/10 03:50:38;;;;;;;5.30;3.03;;;8.20;99.90;;;;;;5072773;28;20049;-69
2022/10/10 03:53:04;;;;;;;4.00;3.10;;;8.10;99.90;;;;;;5076435;28;20044;-69
2022/10/10 03:55:30;;;;;;;5.38;3.53;;;8.10;99.90;;;;;;5082079;28;20087;-70
2022/10/10 03:57:56;;;;;;;5.68;3.85;;;8.10;99.90;;;;;;5072967;28;20079;-69
2022/10/10 04:00:22;;;;;;;8.35;3.88;;;8.00;99.90;;;;;;5072724;28;20127;-70
2022/10/10 04:02:47;;;;;;;7.75;4.43;;;8.10;99.90;;;;;;5071510;28;20041;-71
2022/10/10 04:05:13;;;;;;;6.30;4.20;;;8.00;99.90;;;;;;5062586;28;20410;-70
2022/10/10 04:07:40;;;;;;;6.72;4.05;;;8.00;99.90;;;;;;5083502;28;20101;-70
2022/10/10 04:10:07;;;;;;;7.45;4.68;;;7.90;99.90;;;;;;5073434;28;20527;-70
2022/10/10 04:12:32;;;;;;;6.22;3.78;;;7.90;99.90;;;;;;5075012;28;20040;-73
2022/10/10 04:14:58;;;;;;;6.55;4.10;;;7.90;99.90;;;;;;5071455;28;20528;-70
2022/10/10 04:17:24;;;;;;;5.15;3.50;;;7.90;99.90;;;;;;5056463;28;20063;-69
2022/10/10 04:19:49;;;;;;;5.32;3.75;;;7.80;99.90;;;;;;5082142;28;20039;-70
2022/10/10 04:22:15;;;;;;;4.90;3.47;;;8.10;99.90;;;;;;5081016;28;20048;-70
2022/10/10 04:24:41;;;;;;;6.00;3.67;;;7.80;99.90;;;;;;5070661;28;20408;-70
2022/10/10 04:27:07;;;;;;;4.90;3.63;;;7.80;99.90;;;;;;5084624;28;20448;-70
2022/10/10 04:29:33;;;;;;;5.22;3.42;;;7.80;99.90;;;;;;5071126;28;20056;-70
2022/10/10 04:31:58;;;;;;;5.93;3.70;;;7.80;99.90;;;;;;5073332;28;20367;-70
2022/10/10 04:34:24;;;;;;;6.13;3.80;;;7.80;99.90;;;;;;5072063;28;20052;-70
2022/10/10 04:36:50;;;;;;;5.57;3.17;;;7.80;99.90;;;;;;5071793;28;20044;-70
2022/10/10 04:39:16;;;;;;;6.05;3.50;;;7.80;99.90;;;;;;5091752;28;20044;-70
2022/10/10 04:41:41;;;;;;;5.00;3.20;;;7.70;99.90;;;;;;5076266;28;20287;-69
2022/10/10 04:44:07;;;;;;;4.65;3.30;;;8.40;99.90;;;;;;5077005;28;20401;-70
2022/10/10 04:46:33;;;;;;;4.20;3.00;;;7.80;99.90;;;;;;5073644;28;20052;-70
2022/10/10 04:48:58;;;;;;;5.05;2.97;;;7.80;99.90;;;;;;5077539;28;20040;-71
2022/10/10 04:51:24;;;;;;;5.20;3.15;;;7.80;99.90;;;;;;5071738;28;20045;-70
2022/10/10 04:53:50;;;;;;;3.90;2.83;;;7.80;99.90;;;;;;5088757;28;20554;-70
2022/10/10 04:56:16;;;;;;;4.38;2.97;;;7.80;99.90;;;;;;5071257;28;20040;-70
2022/10/10 04:58:41;;;;;;;4.80;3.00;;;7.80;99.90;;;;;;5083337;28;20044;-70
2022/10/10 05:01:07;;;;;;;3.92;2.67;;;7.80;99.90;;;;;;5082469;28;20059;-70
2022/10/10 05:03:33;;;;;;;4.95;3.00;;;7.80;99.90;;;;;;5071268;28;20055;-71
2022/10/10 05:05:58;;;;;;;4.03;2.92;;;7.90;99.90;;;;;;5075715;28;20044;-70
2022/10/10 05:08:24;;;;;;;4.28;2.95;;;7.80;99.90;;;;;;5091601;28;20051;-71
2022/10/10 05:10:52;;;;;;;4.97;2.80;;;7.70;99.90;;;;;;5071630;28;20044;-70
2022/10/10 05:13:18;;;;;;;3.90;2.67;;;7.70;99.90;;;;;;5073786;28;20442;-70
2022/10/10 05:15:44;;;;;;;4.20;2.70;;;7.70;99.90;;;;;;5071459;28;20048;-70
2022/10/10 05:18:10;;;;;;;4.60;2.33;;;7.70;99.90;;;;;;5084458;28;20044;-71
2022/10/10 05:20:35;;;;;;;4.28;2.80;;;7.70;99.90;;;;;;5081158;28;20072;-62
2022/10/10 05:23:02;;;;;;;4.28;2.90;;;7.70;99.90;;;;;;5070432;28;20131;-62
2022/10/10 05:25:28;;;;;;;4.57;2.85;;;7.70;99.90;;;;;;5077294;28;20036;-62
2022/10/10 05:27:54;;;;;;;4.10;3.30;;;7.70;99.90;;;;;;5079951;28;20409;-62
2022/10/10 05:30:19;;;;;;;4.20;2.80;;;7.70;99.90;;;;;;5081219;28;20072;-62
2022/10/10 05:32:45;;;;;;;4.32;2.75;;;7.70;99.90;;;;;;5080376;28;20072;-62
2022/10/10 05:35:11;;;;;;;4.57;2.90;;;7.70;99.90;;;;;;5074990;28;20040;-62
2022/10/10 05:37:37;;;;;;;4.72;2.97;;;7.70;99.90;;;;;;5089424;28;20378;-62
2022/10/10 05:40:03;;;;;;;3.88;2.50;;;7.70;99.90;;;;;;5083280;28;20055;-62
2022/10/10 05:42:29;;;;;;;4.72;2.88;;;7.70;99.90;;;;;;5072634;28;20044;-61
2022/10/10 05:44:55;;;;;;;5.30;3.20;;;7.70;99.90;;;;;;5070702;28;20051;-62
2022/10/10 05:47:20;;;;;;;4.53;2.70;;;7.70;99.90;;;;;;5079381;28;20048;-62
2022/10/10 05:49:46;;;;;;;4.25;2.65;;;7.70;99.90;;;;;;5073426;28;20096;-62
2022/10/10 05:52:12;;;;;;;4.18;3.10;;;7.80;99.90;;;;;;5076882;28;20401;-62
2022/10/10 05:54:37;;;;;;;6.90;3.15;;;7.70;99.90;;;;;;5070832;28;20456;-62
2022/10/10 05:57:03;;;;;;;4.57;2.67;;;7.70;99.90;;;;;;5085764;28;20047;-62
2022/10/10 05:59:29;;;;;;;5.72;3.22;;;7.70;99.90;;;;;;5075168;28;20051;-61
2022/10/10 06:01:55;;;;;;;4.82;2.88;;;7.70;99.90;;;;;;5073343;28;20205;-63
2022/10/10 06:04:22;;;;;;;4.45;2.90;;;7.70;99.90;;;;;;5073862;28;20520;-62
2022/10/10 06:06:48;;;;;;;4.10;2.78;;;7.70;99.90;;;;;;5073154;28;20045;-62
2022/10/10 06:09:13;;;;;;;4.55;2.78;;;7.70;99.90;;;;;;5069309;28;20467;-63
2022/10/10 06:11:39;;;;;;;3.95;2.90;;;7.70;99.90;;;;;;5070595;28;20051;-62
2022/10/10 06:14:05;;;;;;;8.30;3.17;;;7.70;99.90;;;;;;5078258;28;20040;-62
2022/10/10 06:16:31;;;;;;;4.15;2.53;;;7.70;99.90;;;;;;5075253;28;20048;-62
2022/10/10 06:18:57;;;;;;;4.38;3.50;;;7.70;99.90;;;;;;5074532;28;20046;-62
2022/10/10 06:21:23;;;;;;;5.15;2.95;;;7.70;99.90;;;;;;5075761;28;20056;-62
2022/10/10 06:23:49;;;;;;;4.93;2.95;;;7.70;99.90;;;;;;5083150;28;20544;-62
2022/10/10 06:26:15;;;;;;;3.63;2.80;;;7.70;99.90;;;;;;5076478;28;20123;-62
2022/10/10 06:28:40;;;;;;;5.28;2.95;;;7.60;99.90;;;;;;5073901;28;20094;-62
2022/10/10 06:31:07;;;;;;;5.72;3.00;;;7.60;99.90;;;;;;5074338;28;20127;-62
2022/10/10 06:33:36;;;;;;;4.65;3.33;;;7.60;99.90;;;;;;5082007;28;20060;-63
2022/10/10 06:36:05;;;;;;;5.57;3.50;;;7.70;99.90;;;;;;5091456;28;20154;-62
2022/10/10 06:38:34;;;;;;;7.13;3.30;;;7.70;99.90;;;;;;5073277;28;20070;-62
2022/10/10 06:41:01;;;;;;;6.32;3.55;;;7.70;99.90;;;;;;5073677;28;20075;-62
2022/10/10 06:43:27;;;;;;;4.57;3.25;;;7.80;99.90;;;;;;5078552;28;20106;-63
2022/10/10 06:45:53;;;;;;;6.18;3.00;;;7.80;99.90;;;;;;5073658;28;20049;-62
2022/10/10 06:48:18;;;;;;;4.50;3.40;;;7.90;99.90;;;;;;5081224;28;20044;-63
2022/10/10 06:50:55;;;;;;;6.07;3.70;;;7.90;99.90;;;;;;5079220;28;20110;-63
2022/10/10 06:53:21;;;;;;;5.47;3.40;;;7.90;99.90;;;;;;5073962;28;20048;-62
2022/10/10 06:55:47;;;;;;;5.47;3.60;;;7.90;99.90;;;;;;5075222;28;20489;-62
2022/10/10 06:58:13;;;;;;;5.07;3.53;;;8.00;99.90;;;;;;5084348;28;20493;-61
2022/10/10 07:00:39;;;;;;;5.35;3.70;;;8.10;99.90;;;;;;5077780;28;20098;-62
2022/10/10 07:03:05;;;;;;;3.80;3.20;;;8.10;99.90;;;;;;5073820;28;20048;-62
2022/10/10 07:05:30;;;;;;;7.15;4.18;;;8.30;99.90;;;;;;5082089;28;20052;-63
2022/10/10 07:07:56;;;;;;;4.50;3.20;;;8.30;99.90;;;;;;5077298;28;20064;-62
2022/10/10 07:10:22;;;;;;;5.35;3.53;;;8.40;99.90;;;;;;5076444;28;20101;-62
2022/10/10 07:12:47;;;;;;;5.38;3.63;;;8.50;99.90;;;;;;5091277;28;20040;-63
2022/10/10 07:15:14;;;;;;;4.82;3.20;;;8.60;99.90;;;;;;5053668;28;20041;-62
2022/10/10 07:17:39;;;;;;;5.22;3.65;;;8.70;99.90;;;;;;5079719;28;20083;-62
2022/10/10 07:20:06;;;;;;;5.70;3.55;;;8.80;99.90;;;;;;5080305;28;20067;-62
2022/10/10 07:22:32;;;;;;;4.80;3.20;;;8.90;99.90;;;;;;5073238;28;20512;-62
2022/10/10 07:24:57;;;;;;;5.10;3.38;;;9.00;99.90;;;;;;5075665;28;20076;-61
2022/10/10 07:27:23;;;;;;;5.18;3.50;;;9.10;99.90;;;;;;5082564;28;20051;-62
2022/10/10 07:29:48;;;;;;;5.22;3.80;;;9.20;99.90;;;;;;5092810;28;20051;-62
2022/10/10 07:32:14;;;;;;;8.30;3.38;;;9.30;99.90;;;;;;5074984;28;20048;-62
2022/10/10 07:34:40;;;;;;;5.40;3.78;;;9.40;99.90;;;;;;5071228;28;20037;-63
2022/10/10 07:37:05;;;;;;;6.10;3.55;;;9.50;99.90;;;;;;5072991;28;20051;-62
2022/10/10 07:39:31;;;;;;;4.82;3.25;;;9.60;99.90;;;;;;5073055;28;20036;-62
2022/10/10 07:41:57;;;;;;;5.47;3.55;;;9.70;99.90;;;;;;5076850;28;20047;-62
2022/10/10 07:44:23;;;;;;;5.40;3.33;;;9.70;99.90;;;;;;5075800;28;20114;-62
2022/10/10 07:46:49;;;;;;;5.55;3.97;;;9.70;99.90;;;;;;5086172;28;20048;-62
2022/10/10 07:49:14;;;;;;;4.75;3.55;;;9.80;99.90;;;;;;5072496;28;20509;-62
2022/10/10 07:51:40;;;;;;;4.82;3.90;;;9.80;99.90;;;;;;5072507;28;20127;-62
2022/10/10 07:54:06;;;;;;;4.15;3.35;;;9.90;99.90;;;;;;5072653;28;20151;-62
2022/10/10 07:56:32;;;;;;;5.20;3.55;;;10.00;99.90;;;;;;5083632;28;20036;-63
2022/10/10 07:58:58;;;;;;;4.60;3.40;;;10.00;99.90;;;;;;5076656;28;20518;-62
2022/10/10 08:01:24;;;;;;;5.10;3.83;;;10.10;99.90;;;;;;5071792;28;20052;-62
2022/10/10 08:03:50;;;;;;;5.25;3.75;;;10.20;99.90;;;;;;5073504;28;20053;-62
2022/10/10 08:06:17;;;;;;;5.60;3.58;;;10.20;99.90;;;;;;5073005;28;20049;-61
2022/10/10 08:08:46;;;;;;;5.45;4.00;;;10.20;99.90;;;;;;5072606;28;20421;-62
2022/10/10 08:11:12;;;;;;;5.70;3.72;;;10.80;99.90;;;;;;5077048;28;20048;-62
2022/10/10 08:13:40;;;;;;;6.47;3.45;;;10.30;99.90;;;;;;5077039;28;20052;-62
2022/10/10 08:16:05;;;;;;;6.63;3.72;;;10.40;99.90;;;;;;5084925;28;20216;-62
2022/10/10 08:18:31;;;;;;;5.43;3.47;;;10.60;99.90;;;;;;5087487;28;20074;-62
2022/10/10 08:21:02;;;;;;;5.97;3.50;;;10.60;99.90;;;;;;5072347;28;20084;-62
2022/10/10 08:23:28;;;;;;;5.43;4.05;;;10.80;99.90;;;;;;5078766;28;20403;-62
2022/10/10 08:25:58;;;;;;;6.13;3.90;;;10.80;99.90;;;;;;5076068;28;20040;-64
2022/10/10 08:28:24;;;;;;;5.25;3.70;;;11.00;99.90;;;;;;5081471;28;20048;-62
2022/10/10 08:30:50;;;;;;;5.15;3.58;;;11.10;99.90;;;;;;5076639;28;20117;-61
2022/10/10 08:33:15;;;;;;;5.45;4.07;;;11.20;99.90;;;;;;5072408;28;20374;-63
2022/10/10 08:35:43;;;;;;;4.90;3.75;;;11.30;99.90;;;;;;5070709;28;20059;-61
2022/10/10 08:38:08;;;;;;;4.93;3.53;;;11.40;99.90;;;;;;5071009;28;20052;-61
2022/10/10 08:40:43;;;;;;;5.45;3.70;;;11.50;99.90;;;;;;5071686;28;20455;-62
2022/10/10 08:43:35;;;;;;;6.65;3.90;;;11.50;99.90;;;;;;5071594;28;20048;-62
2022/10/10 08:46:47;;;;;;;5.47;4.32;;;11.70;99.90;;;;;;5063100;28;20048;-62
2022/10/10 08:49:42;;;;;;;8.35;3.83;;;11.80;99.90;;;;;;5008734;28;20145;-63
2022/10/10 08:52:16;;;;;;;6.82;3.85;;;11.90;99.90;;;;;;4940668;28;20651;-63
2022/10/10 08:54:45;;;;;;;5.45;3.67;;;11.90;99.90;;;;;;5054254;28;20144;-62
2022/10/10 08:57:47;;;;;;;7.20;4.25;;;11.80;99.90;;;;;;5070815;28;20067;-62
2022/10/10 09:00:16;;;;;;;5.38;4.03;;;11.80;99.90;;;;;;5060752;28;20513;-65
2022/10/10 09:02:55;;;;;;;7.05;3.97;;;11.70;99.90;;;;;;5071120;28;20449;-62
2022/10/10 09:05:32;;;;;;;5.63;3.80;;;11.70;99.90;;;;;;5071012;28;20051;-62
2022/10/10 09:08:23;;;;;;;6.03;3.85;;;11.60;99.90;;;;;;5070474;28;20400;-63
2022/10/10 09:10:55;;;;;;;5.90;4.25;;;11.60;99.90;;;;;;5071055;28;20098;-62
2022/10/10 09:13:35;;;;;;;5.32;4.00;;;11.70;99.90;;;;;;5070050;28;20496;-63
2022/10/10 09:16:06;;;;;;;5.65;4.00;;;11.70;99.90;;;;;;5071177;28;20106;-63
2022/10/10 09:18:41;;;;;;;6.93;4.07;;;11.70;99.90;;;;;;5070486;28;20155;-63
2022/10/10 09:21:11;;;;;;;6.28;3.63;;;11.70;99.90;;;;;;5071366;28;20058;-63
2022/10/10 09:24:03;;;;;;;7.88;4.32;;;11.80;99.90;;;;;;5070963;28;20505;-63
2022/10/10 09:26:36;;;;;;;6.03;4.10;;;12.00;99.90;;;;;;5080201;28;20059;-63
2022/10/10 09:29:23;;;;;;;5.78;4.38;;;12.10;99.90;;;;;;5091161;28;20508;-63
2022/10/10 09:31:56;;;;;;;5.22;3.60;;;12.20;99.90;;;;;;5091101;28;20044;-63
2022/10/10 09:34:34;;;;;;;7.05;4.47;;;12.20;99.90;;;;;;5090673;28;20108;-63
2022/10/10 09:37:01;;;;;;;6.72;4.15;;;12.20;99.90;;;;;;5091091;28;20200;-63
2022/10/10 09:39:42;;;;;;;6.32;4.32;;;12.20;99.90;;;;;;5090010;28;20048;-62
2022/10/10 09:42:14;;;;;;;5.68;4.20;;;12.40;99.90;;;;;;5090695;28;20052;-63
2022/10/10 09:44:41;;;;;;;5.43;3.80;;;12.70;99.90;;;;;;5090703;28;20048;-63
2022/10/10 09:47:12;;;;;;;6.05;4.03;;;13.10;99.90;;;;;;5090917;28;20613;-63
2022/10/10 09:49:37;;;;;;;5.07;3.95;;;13.40;99.90;;;;;;5083612;28;20105;-63
2022/10/10 09:52:23;;;;;;;5.75;3.95;;;13.40;99.90;;;;;;5070959;28;20049;-63
2022/10/10 09:54:59;;;;;;;5.75;4.13;;;13.20;99.90;;;;;;5070268;28;20087;-64
2022/10/10 09:57:27;;;;;;;;;;;13.10;99.90;;;;;;5070751;28;20575;-62
2022/10/10 09:59:53;;;;;;;6.35;4.32;;;13.10;99.90;;;;;;5070647;28;19928;-62
2022/10/10 10:02:27;;;;;;;5.03;4.25;;;13.20;99.90;;;;;;5070332;28;20048;-62
2022/10/10 10:04:53;;;;;;;5.57;4.30;;;13.30;99.90;;;;;;5070598;28;20518;-62
2022/10/10 10:07:27;;;;;;;6.15;4.60;;;13.40;99.90;;;;;;5070751;28;20099;-62
2022/10/10 10:09:59;;;;;;;7.30;4.40;;;13.60;99.90;;;;;;5070311;28;20092;-62
2022/10/10 10:12:28;;;;;;;6.47;4.40;;;13.70;99.90;;;;;;5070895;28;20048;-62
2022/10/10 10:15:03;;;;;;;6.43;4.60;;;13.80;99.90;;;;;;5070544;28;20075;-62
2022/10/10 10:17:29;;;;;;;6.70;4.50;;;13.70;99.90;;;;;;5079272;28;20455;-62
2022/10/10 10:19:55;;;;;;;6.65;4.43;;;13.60;99.90;;;;;;5090632;28;20052;-62
2022/10/10 10:22:36;;;;;;;6.82;4.88;;;13.60;99.90;;;;;;5090747;28;20052;-61
2022/10/10 10:25:39;;;;;;;6.20;4.80;;;13.70;99.90;;;;;;5069870;28;20075;-61
2022/10/10 10:28:11;;;;;;;5.70;4.10;;;13.80;99.90;;;;;;5070116;28;20049;-64
2022/10/10 10:30:42;;;;;;;6.63;4.88;;;13.80;99.90;;;;;;5070366;28;20075;-61
2022/10/10 10:33:23;;;;;;;6.03;4.22;;;13.80;99.90;;;;;;5069939;28;20045;-61
2022/10/10 10:35:59;;;;;;;6.18;4.80;;;14.00;99.90;;;;;;5067422;28;20053;-61
2022/10/10 10:38:51;;;;;;;7.57;4.65;;;14.20;99.90;;;;;;5069132;28;20048;-62
2022/10/10 10:41:32;;;;;;;5.30;4.47;;;14.30;99.90;;;;;;5074077;28;20086;-61
2022/10/10 10:44:16;;;;;;;7.65;4.38;;;14.30;99.90;;;;;;5079610;28;20379;-61
2022/10/10 10:47:00;;;;;;;5.60;3.88;;;14.20;99.90;;;;;;5074437;28;20044;-61
2022/10/10 10:49:37;;;;;;;5.60;4.43;;;14.10;99.90;;;;;;5080039;28;20481;-61
2022/10/10 10:52:47;;;;;;;7.80;4.90;;;14.10;99.90;;;;;;5072714;28;20054;-61
2022/10/10 10:55:21;;;;;;;6.70;4.30;;;14.00;99.90;;;;;;5048887;28;20135;-61
2022/10/10 10:57:46;;;;;;;7.07;4.70;;;14.00;99.90;;;;;;5086331;28;20058;-61
2022/10/10 11:00:17;;;;;;;7.45;4.40;;;14.00;99.90;;;;;;5082892;28;20060;-61
2022/10/10 11:03:04;;;;;;;6.88;5.00;;;14.20;99.90;;;;;;5071827;28;20052;-61
2022/10/10 11:05:36;;;;;;;6.90;4.75;;;14.20;99.90;;;;;;5085097;28;20043;-61
2022/10/10 11:08:23;;;;;;;6.65;5.00;;;14.30;99.90;;;;;;5087300;28;20044;-60
2022/10/10 11:11:03;;;;;;;7.47;4.53;;;14.40;99.90;;;;;;5076940;28;20080;-60
2022/10/10 11:13:43;;;;;;;7.68;4.68;;;14.40;99.90;;;;;;5062925;28;20498;-62
2022/10/10 11:16:20;;;;;;;6.93;4.85;;;14.50;99.90;;;;;;5068927;28;20040;-61
2022/10/10 11:19:05;;;;;;;6.43;4.50;;;14.50;99.90;;;;;;5071835;28;20503;-70
2022/10/10 11:21:33;;;;;;;6.78;5.05;;;14.50;99.90;;;;;;5068212;28;20076;-72
2022/10/10 11:24:14;;;;;;;5.95;4.45;;;14.40;99.90;;;;;;5076184;28;20048;-72
2022/10/10 11:26:51;;;;;;;6.95;4.55;;;14.40;99.90;;;;;;5074551;28;20047;-71
2022/10/10 11:29:45;;;;;;;6.13;3.95;;;14.40;99.90;;;;;;5089289;28;20097;-69
2022/10/10 11:32:16;;;;;;;5.90;4.70;;;14.40;99.90;;;;;;5077524;28;20075;-69
2022/10/10 11:35:05;;;;;;;5.32;4.07;;;14.40;99.90;;;;;;5074116;28;20515;-70
2022/10/10 11:37:37;;;;;;;5.80;4.30;;;14.40;99.90;;;;;;5060312;28;20063;-71
2022/10/10 11:40:05;;;;;;;6.50;4.47;;;14.50;99.90;;;;;;5114125;27;20400;-72
2022/10/10 11:42:39;;;;;;;6.38;4.32;;;14.60;99.90;;;;;;5077796;28;20048;-71
2022/10/10 11:45:14;;;;;;;6.22;4.50;;;14.50;99.90;;;;;;5080642;28;20044;-70
2022/10/10 11:47:45;;;;;;;6.05;4.30;;;14.60;99.90;;;;;;5077460;28;20046;-69
2022/10/10 11:50:15;;;;;;;5.93;4.03;;;14.60;99.90;;;;;;5070520;28;20055;-70
2022/10/10 11:53:12;;;;;;;7.55;4.25;;;14.60;99.90;;;;;;5075678;28;20053;-69
2022/10/10 11:55:43;;;;;;;6.65;4.32;;;14.50;99.90;;;;;;5084000;28;20783;-70
2022/10/10 11:58:09;;;;;;;4.93;3.83;;;14.50;99.90;;;;;;5072818;28;20048;-70
2022/10/10 12:00:49;;;;;;;6.80;4.28;;;14.50;99.90;;;;;;5087587;28;20055;-69
2022/10/10 12:03:15;;;;;;;6.47;4.55;;;14.50;99.90;;;;;;5084606;28;20491;-70
2022/10/10 12:05:49;;;;;;;6.20;4.35;;;14.50;99.90;;;;;;5083960;28;20048;-69
2022/10/10 12:08:18;;;;;;;5.30;3.78;;;14.50;99.90;;;;;;5075289;28;20178;-70
2022/10/10 12:11:08;;;;;;;6.47;4.13;;;14.50;99.90;;;;;;5084069;28;20059;-71
2022/10/10 12:13:50;;;;;;;6.13;3.78;;;14.50;99.90;;;;;;5080641;28;20435;-69
2022/10/10 12:16:20;;;;;;;5.70;4.18;;;14.40;99.90;;;;;;5071027;28;20051;-70
2022/10/10 12:18:53;;;;;;;8.07;4.32;;;14.40;99.90;;;;;;5088933;28;20047;-68
2022/10/10 12:21:24;;;;;;;5.38;3.95;;;14.40;99.90;;;;;;5072738;28;20419;-69
2022/10/10 12:24:03;;;;;;;4.88;3.70;;;14.30;99.90;;;;;;5073835;28;20397;-70
2022/10/10 12:27:07;;;;;;;5.10;3.95;;;14.30;99.90;;;;;;5073292;28;20044;-70
2022/10/10 12:30:07;;;;;;;7.00;3.60;;;14.30;99.90;;;;;;5060639;28;20493;-69
2022/10/10 12:32:37;;;;;;;7.80;4.00;;;14.30;99.90;;;;;;5069904;28;20170;-68
2022/10/10 12:35:30;;;;;;;6.22;3.20;;;14.40;99.90;;;;;;5080349;28;20064;-70
2022/10/10 12:38:18;;;;;;;5.45;3.75;;;14.40;99.90;;;;;;5085619;28;20048;-69
2022/10/10 12:41:10;;;;;;;8.35;3.67;;;14.50;99.90;;;;;;5073590;28;20051;-69
2022/10/10 12:44:19;;;;;;;5.13;3.42;;;14.50;99.90;;;;;;5064028;28;20044;-70
2022/10/10 12:46:48;;;;;;;5.53;3.70;;;14.50;99.90;;;;;;5047347;28;20041;-70
2022/10/10 12:49:23;;;;;;;4.80;3.17;;;14.60;99.90;;;;;;5058670;28;20055;-70
2022/10/10 12:52:19;;;;;;;6.82;3.63;;;14.60;99.90;;;;;;5085746;28;20043;-72
2022/10/10 12:54:46;;;;;;;5.18;3.47;;;14.70;99.90;;;;;;5079397;28;20041;-71
2022/10/10 12:57:30;;;;;;;6.03;3.63;;;14.70;99.90;;;;;;5073970;28;20087;-71
2022/10/10 12:59:57;;;;;;;6.65;3.38;;;14.70;99.90;;;;;;5077328;28;20042;-70
2022/10/10 13:02:26;;;;;;;4.32;3.35;;;14.60;99.90;;;;;;5070831;28;20048;-69
2022/10/10 13:04:56;;;;;;;5.85;3.60;;;14.60;99.90;;;;;;5074935;28;20056;-71
2022/10/10 13:07:23;;;;;;;6.13;3.97;;;14.60;99.90;;;;;;5080894;28;20055;-68
2022/10/10 13:09:52;;;;;;;5.88;3.75;;;14.60;99.90;;;;;;5082529;28;20043;-68
2022/10/10 13:12:27;;;;;;;5.47;3.58;;;14.60;99.90;;;;;;5084763;28;20095;-67